D/T METAR WX W/DIR W/SPE G/SPE TEMP DEWP
16/01/19 02:50 EGNJ 160250Z AUTO 21019KT 9999 SCT009/// BKN014/// OVC041/// 08/07 Q1005 SSW (210°) 21.9mph 8°C 7°C
16/01/19 02:20 EGNJ 160220Z AUTO 21019KT 9999 SCT017/// OVC022/// 08/07 Q1005 SSW (210°) 21.9mph 8°C 7°C
16/01/19 01:50 EGNJ 160150Z AUTO 22019KT 9999 SCT021/// BKN027/// 08/06 Q1005 SW (220°) 21.9mph 8°C 6°C
16/01/19 01:20 EGNJ 160120Z AUTO 21015KT 9999 NCD 08/06 Q1006 SSW (210°) 17.3mph 8°C 6°C
16/01/19 00:50 EGNJ 160050Z AUTO 21018KT 9999 FEW029/// 08/06 Q1006 SSW (210°) 20.7mph 8°C 6°C
16/01/19 00:20 EGNJ 160020Z AUTO 21015KT 9999 BKN027/// BKN032/// 08/06 Q1007 SSW (210°) 17.3mph 8°C 6°C
15/01/19 23:50 EGNJ 152350Z AUTO 21013KT 9999 BKN028/// 08/06 Q1007 SSW (210°) 15.0mph 8°C 6°C
15/01/19 22:50 EGNJ 152250Z AUTO 22012KT 9999 BKN028/// OVC033/// 09/06 Q1008 SW (220°) 13.8mph 9°C 6°C
15/01/19 22:20 EGNJ 152220Z AUTO 21014KT 9999 BKN026/// OVC031/// 09/06 Q1009 SSW (210°) 16.1mph 9°C 6°C
15/01/19 21:50 EGNJ 152150Z AUTO 21014KT 9999 BKN026/// 08/06 Q1009 SSW (210°) 16.1mph 8°C 6°C
15/01/19 21:20 EGNJ 152120Z AUTO 21015KT 9999 SCT028/// 08/06 Q1009 SSW (210°) 17.3mph 8°C 6°C
15/01/19 20:50 EGNJ 152050Z 21015KT 9999 BKN028 08/06 Q1010 SSW (210°) 17.3mph 8°C 6°C
15/01/19 20:20 EGNJ 152020Z 21014KT 9999 SCT029 08/06 Q1010 SSW (210°) 16.1mph 8°C 6°C
15/01/19 19:20 EGNJ 151920Z 21012KT 9999 BKN032 08/06 Q1011 SSW (210°) 13.8mph 8°C 6°C
15/01/19 18:20 EGNJ 151820Z 19008KT 9999 SCT031 08/05 Q1011 S (190°) 9.2mph 8°C 5°C
15/01/19 17:50 EGNJ 151750Z 23013KT 9999 SCT035 09/05 Q1012 SW (230°) 15.0mph 9°C 5°C
15/01/19 17:20 EGNJ 151720Z 23009KT 9999 BKN035 09/04 Q1012 SW (230°) 10.4mph 9°C 4°C
15/01/19 16:20 EGNJ 151620Z 22011KT 9999 BKN036 09/04 Q1012 SW (220°) 12.7mph 9°C 4°C
15/01/19 15:50 EGNJ 151550Z 25012KT 9999 BKN037 10/03 Q1012 WSW (250°) 13.8mph 10°C 3°C
15/01/19 15:20 EGNJ 151520Z 24019KT 9999 FEW020 BKN037 10/03 Q1012 WSW (240°) 21.9mph 10°C 3°C
15/01/19 14:50 EGNJ 151450Z 22014KT 9999 FEW015 BKN038 09/05 Q1013 SW (220°) 16.1mph 9°C 5°C
15/01/19 14:20 EGNJ 151420Z 23015KT 9999 FEW015 BKN037 10/06 Q1013 SW (230°) 17.3mph 10°C 6°C
15/01/19 13:50 EGNJ 151350Z 24013KT 9999 FEW015 BKN037 10/05 Q1013 WSW (240°) 15.0mph 10°C 5°C
15/01/19 12:50 EGNJ 151250Z 23013KT 9999 FEW027 11/05 Q1014 SW (230°) 15.0mph 11°C 5°C
15/01/19 12:20 EGNJ 151220Z 24015KT 9999 FEW027 11/05 Q1014 WSW (240°) 17.3mph 11°C 5°C
15/01/19 11:20 EGNJ 151120Z 23012KT 9999 FEW037 09/06 Q1015 SW (230°) 13.8mph 9°C 6°C
15/01/19 10:50 EGNJ 151050Z 22012KT 9999 FEW030 08/05 Q1015 SW (220°) 13.8mph 8°C 5°C
15/01/19 10:20 EGNJ 151020Z 22017KT 9999 FEW028 07/05 Q1015 SW (220°) 19.6mph 7°C 5°C
15/01/19 09:50 EGNJ 150950Z 21014KT 9999 FEW025 07/05 Q1015 SSW (210°) 16.1mph 7°C 5°C
15/01/19 09:20 EGNJ 150920Z 21016KT 9999 FEW025 06/05 Q1015 SSW (210°) 18.4mph 6°C 5°C
15/01/19 08:50 EGNJ 150850Z 22015KT 9999 FEW025 06/05 Q1015 SW (220°) 17.3mph 6°C 5°C
15/01/19 08:20 EGNJ 150820Z 21015KT 9999 SCT035 06/04 Q1015 SSW (210°) 17.3mph 6°C 4°C
15/01/19 07:50 EGNJ 150750Z 20012KT 9999 FEW030 04/04 Q1015 SSW (200°) 13.8mph 4°C 4°C
15/01/19 07:20 EGNJ 150720Z 21012KT 9999 SCT030 05/04 Q1015 SSW (210°) 13.8mph 5°C 4°C
15/01/19 06:50 EGNJ 150650Z 21012KT 9999 FEW019 05/04 Q1015 SSW (210°) 13.8mph 5°C 4°C
15/01/19 06:20 EGNJ 150620Z 22014KT 9999 FEW020 05/04 Q1015 SW (220°) 16.1mph 5°C 4°C
15/01/19 05:50 EGNJ 150550Z 22016KT 9999 SCT018 06/04 Q1015 SW (220°) 18.4mph 6°C 4°C
15/01/19 05:20 EGNJ 150520Z AUTO 21014KT 9999 BKN018/// OVC024/// 06/04 Q1016 SSW (210°) 16.1mph 6°C 4°C
15/01/19 04:50 EGNJ 150450Z AUTO 20013KT 9999 SCT018/// OVC034/// 05/04 Q1016 SSW (200°) 15.0mph 5°C 4°C
15/01/19 04:20 EGNJ 150420Z AUTO 21015KT 9999 FEW017/// BKN029/// OVC035/// 06/04 Q1016 SSW (210°) 17.3mph 6°C 4°C
15/01/19 03:50 EGNJ 150350Z AUTO 21011KT 9999 BKN017/// OVC032/// 06/04 Q1017 SSW (210°) 12.7mph 6°C 4°C
15/01/19 03:20 EGNJ 150320Z AUTO 21013KT 9999 BKN018/// OVC035/// 06/04 Q1017 SSW (210°) 15.0mph 6°C 4°C
15/01/19 02:20 EGNJ 150220Z AUTO 22008KT 9999 FEW038/// 05/03 Q1018 SW (220°) 9.2mph 5°C 3°C
15/01/19 01:50 EGNJ 150150Z AUTO 23010KT 9999 NCD 05/03 Q1018 SW (230°) 11.5mph 5°C 3°C
15/01/19 01:20 EGNJ 150120Z AUTO 23015KT 9999 FEW015/// 05/03 Q1018 SW (230°) 17.3mph 5°C 3°C
15/01/19 00:50 EGNJ 150050Z AUTO 22013KT 9999 BKN015/// OVC022/// 05/04 Q1018 SW (220°) 15.0mph 5°C 4°C
15/01/19 00:20 EGNJ 150020Z AUTO 22015KT 9999 BKN021/// 05/04 Q1018 SW (220°) 17.3mph 5°C 4°C
14/01/19 23:50 EGNJ 142350Z AUTO 20010KT 9999 BKN047/// 05/03 Q1019 SSW (200°) 11.5mph 5°C 3°C
14/01/19 23:20 EGNJ 142320Z AUTO 21010KT 9999 FEW035/// 05/03 Q1019 SSW (210°) 11.5mph 5°C 3°C
14/01/19 22:20 EGNJ 142220Z AUTO 23008KT 9999 FEW036/// BKN043/// 06/04 Q1020 SW (230°) 9.2mph 6°C 4°C
14/01/19 21:50 EGNJ 142150Z AUTO 22009KT 9999 SCT037/// BKN044/// 06/04 Q1020 SW (220°) 10.4mph 6°C 4°C
14/01/19 20:50 EGNJ 142050Z 25007KT 9999 FEW048 06/04 Q1020 WSW (250°) 8.1mph 6°C 4°C
14/01/19 20:20 EGNJ 142020Z 24006KT 9999 FEW046 06/04 Q1020 WSW (240°) 6.9mph 6°C 4°C
14/01/19 19:20 EGNJ 141920Z 23007KT 9999 SCT045 06/04 Q1020 SW (230°) 8.1mph 6°C 4°C
14/01/19 18:50 EGNJ 141850Z 22009KT 9999 SCT045 06/04 Q1020 SW (220°) 10.4mph 6°C 4°C
14/01/19 18:20 EGNJ 141820Z 21008KT 9999 FEW025 BKN044 06/04 Q1020 SSW (210°) 9.2mph 6°C 4°C
14/01/19 17:50 EGNJ 141750Z 22009KT 9999 FEW020 BKN048 06/04 Q1020 SW (220°) 10.4mph 6°C 4°C
14/01/19 16:50 EGNJ 141650Z 20005KT 9999 FEW018 BKN042 05/04 Q1020 SSW (200°) 5.8mph 5°C 4°C
14/01/19 16:20 EGNJ 141620Z 22005KT 9999 FEW018 BKN040 06/04 Q1020 SW (220°) 5.8mph 6°C 4°C
14/01/19 15:50 EGNJ 141550Z 25004KT 9999 FEW020 BKN045 07/04 Q1020 WSW (250°) 4.6mph 7°C 4°C
14/01/19 15:20 EGNJ 141520Z 18002KT 9999 FEW020 SCT023 07/04 Q1020 S (180°) 2.3mph 7°C 4°C
14/01/19 14:50 EGNJ 141450Z VRB02KT 9999 FEW019 SCT024 07/04 Q1020 N (0°) 2.3mph 7°C 4°C
14/01/19 14:20 EGNJ 141420Z 05003KT 9999 FEW016 SCT022TCU 07/04 Q1020 NE (50°) 3.5mph 7°C 4°C
14/01/19 13:50 EGNJ 141350Z 02005KT 9999 FEW016 SCT023 07/04 Q1020 NNE (20°) 5.8mph 7°C 4°C
14/01/19 13:20 EGNJ 141320Z 30008KT 9999 FEW017 SCT042 08/04 Q1020 WNW (300°) 9.2mph 8°C 4°C
14/01/19 12:50 EGNJ 141250Z 31009KT 9999 FEW027 SCT040 08/04 Q1020 NW (310°) 10.4mph 8°C 4°C
14/01/19 12:20 EGNJ 141220Z 30008KT 9999 FEW027 BKN042 07/04 Q1020 WNW (300°) 9.2mph 7°C 4°C
14/01/19 11:50 EGNJ 141150Z 32008KT 9999 FEW023 SCT030 BKN039 07/04 Q1020 NW (320°) 9.2mph 7°C 4°C
14/01/19 11:20 EGNJ 141120Z 31005KT 280V350 9999 FEW023 SCT030 BKN039 07/04 Q1020 NW (310°) 5.8mph 7°C 4°C
14/01/19 10:50 EGNJ 141050Z 29005KT 9999 FEW023 SCT030 BKN034 06/04 Q1019 WNW (290°) 5.8mph 6°C 4°C
14/01/19 10:20 EGNJ 141020Z 28005KT 9999 FEW022 BKN030 06/04 Q1019 W (280°) 5.8mph 6°C 4°C
14/01/19 09:50 EGNJ 140950Z 32005KT 9999 FEW022 BKN030 06/04 Q1019 NW (320°) 5.8mph 6°C 4°C
14/01/19 08:50 EGNJ 140850Z 29006KT 9999 FEW022 BKN030 06/03 Q1018 WNW (290°) 6.9mph 6°C 3°C
14/01/19 08:20 EGNJ 140820Z 29006KT 9999 FEW022 SCT028 06/03 Q1018 WNW (290°) 6.9mph 6°C 3°C
14/01/19 07:50 EGNJ 140750Z 30007KT 9999 FEW022 BKN028 BKN032 06/03 Q1017 WNW (300°) 8.1mph 6°C 3°C
14/01/19 07:20 EGNJ 140720Z 30007KT 9999 FEW022 05/03 Q1017 WNW (300°) 8.1mph 5°C 3°C
14/01/19 06:50 EGNJ 140650Z 30008KT 9999 SCT031 06/03 Q1016 WNW (300°) 9.2mph 6°C 3°C
14/01/19 06:20 EGNJ 140620Z 29009KT CAVOK 06/03 Q1016 WNW (290°) 10.4mph 6°C 3°C
14/01/19 05:50 EGNJ 140550Z 28010KT CAVOK 06/03 Q1016 W (280°) 11.5mph 6°C 3°C
14/01/19 05:20 EGNJ 140520Z AUTO 30011KT 9999 NCD 06/03 Q1015 WNW (300°) 12.7mph 6°C 3°C
14/01/19 04:20 EGNJ 140420Z AUTO 28010KT 9999 NCD 06/03 Q1014 W (280°) 11.5mph 6°C 3°C
14/01/19 03:50 EGNJ 140350Z AUTO 29013KT 9999 NCD 06/03 Q1014 WNW (290°) 15.0mph 6°C 3°C
14/01/19 03:20 EGNJ 140320Z AUTO 29015KT 9999 NCD 07/03 Q1014 WNW (290°) 17.3mph 7°C 3°C
14/01/19 02:50 EGNJ 140250Z AUTO 29012KT 9999 NCD 07/04 Q1013 WNW (290°) 13.8mph 7°C 4°C
14/01/19 02:20 EGNJ 140220Z AUTO 28012KT 9999 NCD 07/03 Q1013 W (280°) 13.8mph 7°C 3°C
14/01/19 01:50 EGNJ 140150Z AUTO 28011KT 9999 FEW035/// 06/03 Q1013 W (280°) 12.7mph 6°C 3°C
14/01/19 01:20 EGNJ 140120Z AUTO 28009KT 9999 NCD 06/03 Q1012 W (280°) 10.4mph 6°C 3°C
14/01/19 00:50 EGNJ 140050Z AUTO 27009KT 9999 NCD 06/03 Q1012 W (270°) 10.4mph 6°C 3°C
14/01/19 00:20 EGNJ 140020Z AUTO 27012KT 9999 NCD 07/04 Q1012 W (270°) 13.8mph 7°C 4°C
13/01/19 23:50 EGNJ 132350Z AUTO 28011KT 9999 FEW031/// 07/04 Q1011 W (280°) 12.7mph 7°C 4°C
13/01/19 23:20 EGNJ 132320Z AUTO 27011KT 9999 FEW032/// 07/04 Q1011 W (270°) 12.7mph 7°C 4°C
13/01/19 22:20 EGNJ 132220Z AUTO 28015KT 9999 NCD 08/04 Q1010 W (280°) 17.3mph 8°C 4°C
13/01/19 21:50 EGNJ 132150Z AUTO 28017KT 9999 FEW034/// 08/03 Q1010 W (280°) 19.6mph 8°C 3°C
13/01/19 21:20 EGNJ 132120Z AUTO 27013KT 9999 FEW036/// 08/04 Q1009 W (270°) 15.0mph 8°C 4°C
13/01/19 20:50 EGNJ 132050Z 27015KT 9999 FEW038 08/04 Q1009 W (270°) 17.3mph 8°C 4°C
13/01/19 20:20 EGNJ 132020Z 27014KT 9999 FEW038 08/04 Q1009 W (270°) 16.1mph 8°C 4°C
13/01/19 19:20 EGNJ 131920Z 28016KT 9999 FEW035 08/04 Q1009 W (280°) 18.4mph 8°C 4°C
13/01/19 18:50 EGNJ 131850Z 28018KT 9999 FEW035 08/04 Q1008 W (280°) 20.7mph 8°C 4°C
13/01/19 18:20 EGNJ 131820Z 28018KT 9999 FEW038 08/04 Q1008 W (280°) 20.7mph 8°C 4°C
13/01/19 17:50 EGNJ 131750Z 28019KT 9999 FEW038 09/04 Q1008 W (280°) 21.9mph 9°C 4°C
13/01/19 17:20 EGNJ 131720Z 28019KT 9999 FEW025 SCT036 09/04 Q1007 W (280°) 21.9mph 9°C 4°C
13/01/19 16:50 EGNJ 131650Z 29016KT 9999 FEW025 SCT036 09/05 Q1008 WNW (290°) 18.4mph 9°C 5°C
13/01/19 15:50 EGNJ 131550Z 28014KT 9999 FEW017 SCT030 10/06 Q1007 W (280°) 16.1mph 10°C 6°C
13/01/19 15:20 EGNJ 131520Z 29019KT 9999 FEW017 SCT030 11/06 Q1006 WNW (290°) 21.9mph 11°C 6°C
13/01/19 14:20 EGNJ 131420Z 28016KT 240V300 9999 FEW010 SCT026 BKN034 11/08 Q1006 W (280°) 18.4mph 11°C 8°C
13/01/19 13:50 EGNJ 131350Z 29022G32KT 9000 -RA FEW010 SCT026 BKN034 11/08 Q1006 -RA WNW (290°) 25.3mph 36.8mph 11°C 8°C
13/01/19 13:20 EGNJ 131320Z 29021G38KT 9000 -RA SCT021 BKN026 12/07 Q1006 -RA WNW (290°) 24.2mph 43.7mph 12°C 7°C
13/01/19 12:50 EGNJ 131250Z 28021KT 9999 SCT023 BKN030 12/08 Q1006 W (280°) 24.2mph 12°C 8°C
13/01/19 12:20 EGNJ 131220Z 28021G32KT 9999 SCT021 BKN030 12/07 Q1006 W (280°) 24.2mph 36.8mph 12°C 7°C
13/01/19 11:50 EGNJ 131150Z 26017KT 9999 SCT021 BKN030 12/08 Q1006 W (260°) 19.6mph 12°C 8°C
13/01/19 11:20 EGNJ 131120Z 26017KT 9999 BKN019 11/08 Q1007 W (260°) 19.6mph 11°C 8°C
13/01/19 10:50 EGNJ 131050Z 26016KT 9999 BKN016 11/08 Q1007 W (260°) 18.4mph 11°C 8°C
13/01/19 10:20 EGNJ 131020Z 25017KT 9999 BKN016 11/08 Q1008 WSW (250°) 19.6mph 11°C 8°C
13/01/19 09:50 EGNJ 130950Z 26015KT 9999 BKN016 11/08 Q1009 W (260°) 17.3mph 11°C 8°C
13/01/19 09:20 EGNJ 130920Z 26017KT 9999 BKN015 11/08 Q1009 W (260°) 19.6mph 11°C 8°C
13/01/19 08:20 EGNJ 130820Z 27017KT 9999 BKN014 10/08 Q1010 W (270°) 19.6mph 10°C 8°C
13/01/19 07:50 EGNJ 130750Z 26019KT 9999 BKN014 10/08 Q1009 W (260°) 21.9mph 10°C 8°C
13/01/19 07:20 EGNJ 130720Z 27019G29KT 9999 BKN016 10/08 Q1009 W (270°) 21.9mph 33.4mph 10°C 8°C
13/01/19 06:50 EGNJ 130650Z 26018KT 9999 BKN015 10/08 Q1010 W (260°) 20.7mph 10°C 8°C
13/01/19 05:50 EGNJ 130550Z 26013KT 9999 BKN014 11/08 Q1010 W (260°) 15.0mph 11°C 8°C
13/01/19 05:20 EGNJ 130520Z AUTO 26016G26KT 9999 OVC014/// 11/08 Q1010 W (260°) 18.4mph 29.9mph 11°C 8°C
13/01/19 04:50 EGNJ 130450Z AUTO 25021KT 9999 BKN016/// 11/08 Q1010 WSW (250°) 24.2mph 11°C 8°C
13/01/19 04:20 EGNJ 130420Z AUTO 25020KT 9999 SCT020/// 11/07 Q1010 WSW (250°) 23.0mph 11°C 7°C
13/01/19 03:50 EGNJ 130350Z AUTO 26020G31KT 9999 FEW021/// 11/07 Q1011 W (260°) 23.0mph 35.7mph 11°C 7°C
13/01/19 03:20 EGNJ 130320Z AUTO 26020KT 9999 FEW020/// 11/08 Q1011 W (260°) 23.0mph 11°C 8°C
13/01/19 02:20 EGNJ 130220Z AUTO 26016G26KT 9999 FEW023/// 11/08 Q1012 W (260°) 18.4mph 29.9mph 11°C 8°C
13/01/19 01:50 EGNJ 130150Z AUTO 26019G29KT 9999 NCD 11/08 Q1011 W (260°) 21.9mph 33.4mph 11°C 8°C
13/01/19 01:20 EGNJ 130120Z AUTO 27021G31KT 9999 NCD 11/08 Q1011 W (270°) 24.2mph 35.7mph 11°C 8°C
13/01/19 00:50 EGNJ 130050Z AUTO 27020G33KT 9999 NCD 11/08 Q1012 W (270°) 23.0mph 38.0mph 11°C 8°C
13/01/19 00:20 EGNJ 130020Z AUTO 27018KT 9999 NCD 11/08 Q1012 W (270°) 20.7mph 11°C 8°C
12/01/19 23:50 EGNJ 122350Z AUTO 27019KT 9999 NCD 11/08 Q1013 W (270°) 21.9mph 11°C 8°C
12/01/19 23:20 EGNJ 122320Z AUTO 27018KT 9999 NCD 11/08 Q1013 W (270°) 20.7mph 11°C 8°C
12/01/19 22:50 EGNJ 122250Z AUTO 27017G28KT 9999 NCD 11/08 Q1013 W (270°) 19.6mph 32.2mph 11°C 8°C
12/01/19 21:20 EGNJ 122120Z 27015KT 9999 BKN017 11/08 Q1014 W (270°) 17.3mph 11°C 8°C
12/01/19 20:50 EGNJ 122050Z 27012KT 9999 BKN017 10/08 Q1014 W (270°) 13.8mph 10°C 8°C
12/01/19 20:20 EGNJ 122020Z 26012KT 9999 BKN017 10/08 Q1014 W (260°) 13.8mph 10°C 8°C
12/01/19 19:50 EGNJ 121950Z 26011KT 9999 BKN017 10/08 Q1014 W (260°) 12.7mph 10°C 8°C
12/01/19 19:20 EGNJ 121920Z 25013KT 9999 -RA BKN017 10/08 Q1014 -RA WSW (250°) 15.0mph 10°C 8°C
12/01/19 18:50 EGNJ 121850Z 25013KT 9999 -RA BKN018 09/08 Q1015 -RA WSW (250°) 15.0mph 9°C 8°C
12/01/19 18:20 EGNJ 121820Z 25013KT 9999 -RA BKN018 09/08 Q1015 -RA WSW (250°) 15.0mph 9°C 8°C
12/01/19 17:50 EGNJ 121750Z 25013KT 9999 -RA SCT017 BKN022 09/07 Q1015 -RA WSW (250°) 15.0mph 9°C 7°C
12/01/19 17:20 EGNJ 121720Z 25013KT 6000 -RA FEW009 SCT023 08/07 Q1015 -RA WSW (250°) 15.0mph 8°C 7°C
12/01/19 16:20 EGNJ 121620Z 26015KT 4000 -RA BR SCT018 08/07 Q1016 -RA BR W (260°) 17.3mph 8°C 7°C
12/01/19 15:50 EGNJ 121550Z 26015KT 9999 FEW016 09/07 Q1016 W (260°) 17.3mph 9°C 7°C